sensor_id;sensor_type;location;lat;lon;timestamp;pressure;altitude;pressure_sealevel;temperature;humidity
77323;BME280;66384;51.052;9.850;2023-07-20T00:00:17;98322.06;;;17.35;61.65
77323;BME280;66384;51.052;9.850;2023-07-20T00:03:26;98320.17;;;17.30;61.72
77323;BME280;66384;51.052;9.850;2023-07-20T00:05:58;98318.30;;;17.27;61.91
77323;BME280;66384;51.052;9.850;2023-07-20T00:08:29;98319.88;;;17.22;61.83
77323;BME280;66384;51.052;9.850;2023-07-20T00:11:01;98320.95;;;17.19;61.99
77323;BME280;66384;51.052;9.850;2023-07-20T00:13:33;98316.25;;;17.18;61.86
77323;BME280;66384;51.052;9.850;2023-07-20T00:16:06;98313.30;;;17.17;61.89
77323;BME280;66384;51.052;9.850;2023-07-20T00:18:37;98316.25;;;17.18;61.94
77323;BME280;66384;51.052;9.850;2023-07-20T00:21:10;98311.05;;;17.16;62.14
77323;BME280;66384;51.052;9.850;2023-07-20T00:23:42;98309.50;;;17.14;62.10
77323;BME280;66384;51.052;9.850;2023-07-20T00:26:13;98306.92;;;17.12;62.07
77323;BME280;66384;51.052;9.850;2023-07-20T00:28:45;98309.36;;;17.10;62.31
77323;BME280;66384;51.052;9.850;2023-07-20T00:31:16;98308.70;;;17.05;62.17
77323;BME280;66384;51.052;9.850;2023-07-20T00:33:48;98313.25;;;16.98;62.31
77323;BME280;66384;51.052;9.850;2023-07-20T00:36:20;98312.76;;;16.93;62.19
77323;BME280;66384;51.052;9.850;2023-07-20T00:38:52;98311.91;;;16.88;62.43
77323;BME280;66384;51.052;9.850;2023-07-20T00:41:23;98303.95;;;16.85;62.56
77323;BME280;66384;51.052;9.850;2023-07-20T00:43:55;98307.43;;;16.83;62.76
77323;BME280;66384;51.052;9.850;2023-07-20T00:46:26;98304.30;;;16.84;62.79
77323;BME280;66384;51.052;9.850;2023-07-20T00:48:58;98309.48;;;16.85;62.89
77323;BME280;66384;51.052;9.850;2023-07-20T00:51:30;98312.27;;;16.86;62.83
77323;BME280;66384;51.052;9.850;2023-07-20T00:54:01;98313.48;;;16.88;62.73
77323;BME280;66384;51.052;9.850;2023-07-20T00:56:33;98305.99;;;16.89;62.61
77323;BME280;66384;51.052;9.850;2023-07-20T00:59:06;98306.02;;;16.89;62.51
77323;BME280;66384;51.052;9.850;2023-07-20T01:01:37;98306.20;;;16.86;62.35
77323;BME280;66384;51.052;9.850;2023-07-20T01:04:09;98309.34;;;16.84;62.57
77323;BME280;66384;51.052;9.850;2023-07-20T01:06:48;98307.61;;;16.80;62.57
77323;BME280;66384;51.052;9.850;2023-07-20T01:09:28;98306.41;;;16.76;62.60
77323;BME280;66384;51.052;9.850;2023-07-20T01:12:07;98304.67;;;16.71;62.74
77323;BME280;66384;51.052;9.850;2023-07-20T01:14:40;98304.36;;;16.66;62.91
77323;BME280;66384;51.052;9.850;2023-07-20T01:17:11;98309.06;;;16.61;62.86
77323;BME280;66384;51.052;9.850;2023-07-20T01:19:44;98305.43;;;16.57;62.87
77323;BME280;66384;51.052;9.850;2023-07-20T01:22:27;98303.70;;;16.55;62.93
77323;BME280;66384;51.052;9.850;2023-07-20T01:25:15;98297.81;;;16.52;63.01
77323;BME280;66384;51.052;9.850;2023-07-20T01:28:15;98298.16;;;16.50;63.05
77323;BME280;66384;51.052;9.850;2023-07-20T01:30:58;98300.08;;;16.49;63.11
77323;BME280;66384;51.052;9.850;2023-07-20T01:33:32;98302.34;;;16.49;63.19
77323;BME280;66384;51.052;9.850;2023-07-20T01:36:05;98296.27;;;16.49;63.08
77323;BME280;66384;51.052;9.850;2023-07-20T01:38:38;98299.40;;;16.48;63.20
77323;BME280;66384;51.052;9.850;2023-07-20T01:41:09;98294.88;;;16.47;63.37
77323;BME280;66384;51.052;9.850;2023-07-20T01:43:41;98295.40;;;16.46;63.39
77323;BME280;66384;51.052;9.850;2023-07-20T01:46:13;98302.16;;;16.47;63.45
77323;BME280;66384;51.052;9.850;2023-07-20T01:48:45;98303.21;;;16.46;63.55
77323;BME280;66384;51.052;9.850;2023-07-20T01:51:17;98308.42;;;16.46;63.61
77323;BME280;66384;51.052;9.850;2023-07-20T01:53:49;98313.13;;;16.43;63.71
77323;BME280;66384;51.052;9.850;2023-07-20T01:56:20;98308.96;;;16.41;63.58
77323;BME280;66384;51.052;9.850;2023-07-20T01:58:52;98317.81;;;16.43;63.81
77323;BME280;66384;51.052;9.850;2023-07-20T02:01:24;98316.75;;;16.47;63.80
77323;BME280;66384;51.052;9.850;2023-07-20T02:03:58;98319.52;;;16.52;63.76
77323;BME280;66384;51.052;9.850;2023-07-20T02:06:31;98320.36;;;16.58;63.84
77323;BME280;66384;51.052;9.850;2023-07-20T02:09:03;98318.95;;;16.61;63.76
77323;BME280;66384;51.052;9.850;2023-07-20T02:11:34;98316.16;;;16.63;63.80
77323;BME280;66384;51.052;9.850;2023-07-20T02:14:06;98316.16;;;16.65;63.71
77323;BME280;66384;51.052;9.850;2023-07-20T02:16:37;98311.29;;;16.65;63.67
77323;BME280;66384;51.052;9.850;2023-07-20T02:19:09;98313.04;;;16.64;63.62
77323;BME280;66384;51.052;9.850;2023-07-20T02:21:41;98314.95;;;16.61;63.64
77323;BME280;66384;51.052;9.850;2023-07-20T02:24:13;98314.80;;;16.58;63.82
77323;BME280;66384;51.052;9.850;2023-07-20T02:26:45;98317.94;;;16.54;63.94
77323;BME280;66384;51.052;9.850;2023-07-20T02:29:16;98317.95;;;16.50;64.17
77323;BME280;66384;51.052;9.850;2023-07-20T02:31:48;98313.11;;;16.46;64.44
77323;BME280;66384;51.052;9.850;2023-07-20T02:34:19;98311.75;;;16.42;64.58
77323;BME280;66384;51.052;9.850;2023-07-20T02:36:51;98307.91;;;16.40;64.61
77323;BME280;66384;51.052;9.850;2023-07-20T02:39:22;98302.20;;;16.40;64.80
77323;BME280;66384;51.052;9.850;2023-07-20T02:41:53;98300.29;;;16.40;64.81
77323;BME280;66384;51.052;9.850;2023-07-20T02:44:25;98297.68;;;16.43;64.82
77323;BME280;66384;51.052;9.850;2023-07-20T02:46:57;98295.59;;;16.45;64.87
77323;BME280;66384;51.052;9.850;2023-07-20T02:49:28;98294.36;;;16.44;64.88
77323;BME280;66384;51.052;9.850;2023-07-20T02:52:00;98297.33;;;16.44;64.81
77323;BME280;66384;51.052;9.850;2023-07-20T02:54:31;98298.90;;;16.42;64.97
77323;BME280;66384;51.052;9.850;2023-07-20T02:57:03;98297.86;;;16.40;64.96
77323;BME280;66384;51.052;9.850;2023-07-20T02:59:35;98293.35;;;16.39;65.01
77323;BME280;66384;51.052;9.850;2023-07-20T03:02:09;98296.30;;;16.37;65.03
77323;BME280;66384;51.052;9.850;2023-07-20T03:04:41;98298.57;;;16.36;65.03
77323;BME280;66384;51.052;9.850;2023-07-20T03:07:12;98298.21;;;16.35;65.00
77323;BME280;66384;51.052;9.850;2023-07-20T03:09:44;98298.04;;;16.36;64.88
77323;BME280;66384;51.052;9.850;2023-07-20T03:12:16;98297.86;;;16.38;64.82
77323;BME280;66384;51.052;9.850;2023-07-20T03:14:47;98305.15;;;16.40;64.81
77323;BME280;66384;51.052;9.850;2023-07-20T03:17:19;98307.92;;;16.38;64.68
77323;BME280;66384;51.052;9.850;2023-07-20T03:19:51;98313.83;;;16.36;64.70
77323;BME280;66384;51.052;9.850;2023-07-20T03:22:22;98316.10;;;16.33;64.67
77323;BME280;66384;51.052;9.850;2023-07-20T03:24:54;98312.80;;;16.32;64.74
77323;BME280;66384;51.052;9.850;2023-07-20T03:27:26;98313.84;;;16.31;64.66
77323;BME280;66384;51.052;9.850;2023-07-20T03:29:59;98316.98;;;16.30;64.68
77323;BME280;66384;51.052;9.850;2023-07-20T03:32:30;98316.12;;;16.27;64.53
77323;BME280;66384;51.052;9.850;2023-07-20T03:35:02;98318.73;;;16.22;64.33
77323;BME280;66384;51.052;9.850;2023-07-20T03:37:35;98315.80;;;16.17;64.27
77323;BME280;66384;51.052;9.850;2023-07-20T03:40:09;98322.58;;;16.13;64.29
77323;BME280;66384;51.052;9.850;2023-07-20T03:42:40;98324.83;;;16.11;64.25
77323;BME280;66384;51.052;9.850;2023-07-20T03:45:12;98326.58;;;16.12;64.32
77323;BME280;66384;51.052;9.850;2023-07-20T03:47:44;98325.35;;;16.11;64.16
77323;BME280;66384;51.052;9.850;2023-07-20T03:50:17;98325.53;;;16.09;63.95
77323;BME280;66384;51.052;9.850;2023-07-20T03:52:48;98330.39;;;16.05;63.94
77323;BME280;66384;51.052;9.850;2023-07-20T03:55:20;98334.22;;;16.01;63.94
77323;BME280;66384;51.052;9.850;2023-07-20T03:57:51;98329.20;;;15.96;64.19
77323;BME280;66384;51.052;9.850;2023-07-20T04:00:23;98329.02;;;15.91;64.28
77323;BME280;66384;51.052;9.850;2023-07-20T04:02:55;98324.52;;;15.86;64.28
77323;BME280;66384;51.052;9.850;2023-07-20T04:05:26;98323.48;;;15.83;64.44
77323;BME280;66384;51.052;9.850;2023-07-20T04:07:58;98323.48;;;15.78;64.28
77323;BME280;66384;51.052;9.850;2023-07-20T04:10:30;98328.35;;;15.73;64.34
77323;BME280;66384;51.052;9.850;2023-07-20T04:13:01;98328.52;;;15.68;64.38
77323;BME280;66384;51.052;9.850;2023-07-20T04:15:33;98330.58;;;15.67;64.65
77323;BME280;66384;51.052;9.850;2023-07-20T04:18:05;98330.09;;;15.68;64.78
77323;BME280;66384;51.052;9.850;2023-07-20T04:20:36;98331.14;;;15.71;64.87
77323;BME280;66384;51.052;9.850;2023-07-20T04:23:08;98328.52;;;15.72;64.89
77323;BME280;66384;51.052;9.850;2023-07-20T04:25:41;98327.13;;;15.75;64.93
77323;BME280;66384;51.052;9.850;2023-07-20T04:28:13;98324.00;;;15.79;64.99
77323;BME280;66384;51.052;9.850;2023-07-20T04:30:44;98329.73;;;15.80;64.99
77323;BME280;66384;51.052;9.850;2023-07-20T04:33:16;98324.87;;;15.81;65.09
77323;BME280;66384;51.052;9.850;2023-07-20T04:35:49;98328.33;;;15.82;65.20
77323;BME280;66384;51.052;9.850;2023-07-20T04:38:22;98330.25;;;15.85;65.32
77323;BME280;66384;51.052;9.850;2023-07-20T04:40:54;98337.00;;;15.87;65.41
77323;BME280;66384;51.052;9.850;2023-07-20T04:43:25;98340.13;;;15.89;65.53
77323;BME280;66384;51.052;9.850;2023-07-20T04:45:57;98347.59;;;15.93;65.56
77323;BME280;66384;51.052;9.850;2023-07-20T04:48:29;98346.20;;;15.99;65.74
77323;BME280;66384;51.052;9.850;2023-07-20T04:51:01;98348.95;;;16.06;65.67
77323;BME280;66384;51.052;9.850;2023-07-20T04:53:32;98347.04;;;16.14;65.65
77323;BME280;66384;51.052;9.850;2023-07-20T04:56:04;98343.90;;;16.22;65.60
77323;BME280;66384;51.052;9.850;2023-07-20T04:58:36;98346.66;;;16.28;65.53
77323;BME280;66384;51.052;9.850;2023-07-20T05:01:07;98347.17;;;16.33;65.60
77323;BME280;66384;51.052;9.850;2023-07-20T05:03:39;98344.05;;;16.36;65.60
77323;BME280;66384;51.052;9.850;2023-07-20T05:06:11;98344.20;;;16.37;65.61
77323;BME280;66384;51.052;9.850;2023-07-20T05:08:42;98345.07;;;16.40;65.46
77323;BME280;66384;51.052;9.850;2023-07-20T05:11:14;98345.41;;;16.45;65.52
77323;BME280;66384;51.052;9.850;2023-07-20T05:13:46;98349.71;;;16.50;65.47
77323;BME280;66384;51.052;9.850;2023-07-20T05:16:18;98345.89;;;16.55;65.40
77323;BME280;66384;51.052;9.850;2023-07-20T05:18:50;98344.66;;;16.60;65.30
77323;BME280;66384;51.052;9.850;2023-07-20T05:21:21;98344.46;;;16.64;65.27
77323;BME280;66384;51.052;9.850;2023-07-20T05:23:53;98338.91;;;16.67;65.19
77323;BME280;66384;51.052;9.850;2023-07-20T05:26:24;98335.58;;;16.73;65.10
77323;BME280;66384;51.052;9.850;2023-07-20T05:28:55;98337.66;;;16.77;65.01
77323;BME280;66384;51.052;9.850;2023-07-20T05:31:27;98337.30;;;16.81;65.06
77323;BME280;66384;51.052;9.850;2023-07-20T05:34:01;98333.98;;;16.87;64.94
77323;BME280;66384;51.052;9.850;2023-07-20T05:36:32;98335.53;;;16.90;64.79
77323;BME280;66384;51.052;9.850;2023-07-20T05:39:04;98337.05;;;16.98;64.80
77323;BME280;66384;51.052;9.850;2023-07-20T05:41:35;98337.04;;;17.02;64.57
77323;BME280;66384;51.052;9.850;2023-07-20T05:44:07;98337.71;;;17.05;64.44
77323;BME280;66384;51.052;9.850;2023-07-20T05:46:39;98339.27;;;17.08;64.31
77323;BME280;66384;51.052;9.850;2023-07-20T05:49:26;98339.41;;;17.11;64.23
77323;BME280;66384;51.052;9.850;2023-07-20T05:51:58;98342.88;;;17.14;63.98
77323;BME280;66384;51.052;9.850;2023-07-20T05:54:31;98343.70;;;17.19;64.17
77323;BME280;66384;51.052;9.850;2023-07-20T05:57:02;98347.52;;;17.22;63.99
77323;BME280;66384;51.052;9.850;2023-07-20T05:59:34;98348.89;;;17.26;63.85
77323;BME280;66384;51.052;9.850;2023-07-20T06:02:07;98350.77;;;17.31;63.83
77323;BME280;66384;51.052;9.850;2023-07-20T06:04:40;98352.48;;;17.35;63.66
77323;BME280;66384;51.052;9.850;2023-07-20T06:07:11;98350.73;;;17.36;63.42
77323;BME280;66384;51.052;9.850;2023-07-20T06:09:43;98349.34;;;17.36;63.47
77323;BME280;66384;51.052;9.850;2023-07-20T06:12:15;98349.15;;;17.39;63.62
77323;BME280;66384;51.052;9.850;2023-07-20T06:14:46;98351.55;;;17.45;63.41
77323;BME280;66384;51.052;9.850;2023-07-20T06:17:18;98350.63;;;17.50;63.31
77323;BME280;66384;51.052;9.850;2023-07-20T06:19:49;98346.60;;;17.56;62.91
77323;BME280;66384;51.052;9.850;2023-07-20T06:22:21;98347.42;;;17.61;62.65
77323;BME280;66384;51.052;9.850;2023-07-20T06:24:53;98345.46;;;17.66;62.38
77323;BME280;66384;51.052;9.850;2023-07-20T06:27:24;98349.27;;;17.70;62.31
77323;BME280;66384;51.052;9.850;2023-07-20T06:29:56;98347.83;;;17.75;62.28
77323;BME280;66384;51.052;9.850;2023-07-20T06:32:28;98344.36;;;17.80;62.34
77323;BME280;66384;51.052;9.850;2023-07-20T06:34:59;98346.05;;;17.86;62.25
77323;BME280;66384;51.052;9.850;2023-07-20T06:37:31;98351.05;;;17.90;61.98
77323;BME280;66384;51.052;9.850;2023-07-20T06:40:03;98351.33;;;17.97;61.91
77323;BME280;66384;51.052;9.850;2023-07-20T06:42:38;98350.02;;;18.07;61.58
77323;BME280;66384;51.052;9.850;2023-07-20T06:45:13;98353.41;;;18.17;61.01
77323;BME280;66384;51.052;9.850;2023-07-20T06:47:45;98350.53;;;18.26;60.80
77323;BME280;66384;51.052;9.850;2023-07-20T06:50:16;98351.17;;;18.32;60.72
77323;BME280;66384;51.052;9.850;2023-07-20T06:52:48;98348.70;;;18.35;60.41
77323;BME280;66384;51.052;9.850;2023-07-20T06:55:20;98350.94;;;18.36;60.14
77323;BME280;66384;51.052;9.850;2023-07-20T06:57:53;98356.70;;;18.37;59.94
77323;BME280;66384;51.052;9.850;2023-07-20T07:00:29;98355.30;;;18.36;59.74
77323;BME280;66384;51.052;9.850;2023-07-20T07:03:00;98360.03;;;18.34;59.44
77323;BME280;66384;51.052;9.850;2023-07-20T07:05:34;98360.04;;;18.35;58.90
77323;BME280;66384;51.052;9.850;2023-07-20T07:08:07;98360.85;;;18.38;58.72
77323;BME280;66384;51.052;9.850;2023-07-20T07:10:39;98361.67;;;18.42;58.52
77323;BME280;66384;51.052;9.850;2023-07-20T07:13:11;98358.68;;;18.46;58.72
77323;BME280;66384;51.052;9.850;2023-07-20T07:15:43;98360.20;;;18.50;58.68
77323;BME280;66384;51.052;9.850;2023-07-20T07:18:15;98359.59;;;18.58;58.46
77323;BME280;66384;51.052;9.850;2023-07-20T07:20:54;98359.15;;;18.65;58.17
77323;BME280;66384;51.052;9.850;2023-07-20T07:23:25;98359.59;;;18.75;57.83
77323;BME280;66384;51.052;9.850;2023-07-20T07:25:57;98355.32;;;18.83;57.54
77323;BME280;66384;51.052;9.850;2023-07-20T07:28:29;98356.46;;;18.89;57.37
77323;BME280;66384;51.052;9.850;2023-07-20T07:31:05;98360.23;;;18.94;56.64
77323;BME280;66384;51.052;9.850;2023-07-20T07:33:37;98360.00;;;18.98;56.31
77323;BME280;66384;51.052;9.850;2023-07-20T07:36:08;98363.13;;;19.00;56.58
77323;BME280;66384;51.052;9.850;2023-07-20T07:38:40;98365.34;;;19.03;56.58
77323;BME280;66384;51.052;9.850;2023-07-20T07:41:15;98366.37;;;19.04;56.19
77323;BME280;66384;51.052;9.850;2023-07-20T07:43:47;98366.11;;;19.11;55.83
77323;BME280;66384;51.052;9.850;2023-07-20T07:46:18;98373.00;;;19.17;55.21
77323;BME280;66384;51.052;9.850;2023-07-20T07:48:50;98370.99;;;19.23;55.26
77323;BME280;66384;51.052;9.850;2023-07-20T07:51:21;98366.83;;;19.35;54.89
77323;BME280;66384;51.052;9.850;2023-07-20T07:53:53;98362.11;;;19.47;54.70
77323;BME280;66384;51.052;9.850;2023-07-20T07:56:25;98368.73;;;19.59;54.17
77323;BME280;66384;51.052;9.850;2023-07-20T07:58:57;98366.02;;;19.67;53.81
77323;BME280;66384;51.052;9.850;2023-07-20T08:01:28;98364.32;;;19.76;53.34
77323;BME280;66384;51.052;9.850;2023-07-20T08:04:00;98363.88;;;19.82;52.83
77323;BME280;66384;51.052;9.850;2023-07-20T08:06:32;98367.31;;;19.86;52.76
77323;BME280;66384;51.052;9.850;2023-07-20T08:09:03;98373.80;;;19.84;52.47
77323;BME280;66384;51.052;9.850;2023-07-20T08:11:35;98372.80;;;19.80;52.19
77323;BME280;66384;51.052;9.850;2023-07-20T08:14:06;98374.08;;;19.76;52.26
77323;BME280;66384;51.052;9.850;2023-07-20T08:16:38;98383.39;;;19.73;52.40
77323;BME280;66384;51.052;9.850;2023-07-20T08:19:10;98382.92;;;19.70;52.45
77323;BME280;66384;51.052;9.850;2023-07-20T08:21:41;98381.56;;;19.67;52.40
77323;BME280;66384;51.052;9.850;2023-07-20T08:24:13;98382.58;;;19.69;52.66
77323;BME280;66384;51.052;9.850;2023-07-20T08:26:44;98382.67;;;19.74;52.49
77323;BME280;66384;51.052;9.850;2023-07-20T08:29:16;98380.27;;;19.82;52.49
77323;BME280;66384;51.052;9.850;2023-07-20T08:31:48;98383.46;;;19.89;52.25
77323;BME280;66384;51.052;9.850;2023-07-20T08:34:19;98382.11;;;19.98;51.36
77323;BME280;66384;51.052;9.850;2023-07-20T08:37:01;98380.60;;;20.05;51.18
77323;BME280;66384;51.052;9.850;2023-07-20T08:39:32;98381.25;;;20.07;51.27
77323;BME280;66384;51.052;9.850;2023-07-20T08:42:07;98384.55;;;20.09;51.61
77323;BME280;66384;51.052;9.850;2023-07-20T08:44:39;98389.19;;;20.12;51.90
77323;BME280;66384;51.052;9.850;2023-07-20T08:47:13;98388.69;;;20.12;51.84
77323;BME280;66384;51.052;9.850;2023-07-20T08:49:46;98387.16;;;20.08;51.94
77323;BME280;66384;51.052;9.850;2023-07-20T08:52:19;98391.60;;;20.05;51.87
77323;BME280;66384;51.052;9.850;2023-07-20T08:54:52;98390.33;;;19.97;52.08
77323;BME280;66384;51.052;9.850;2023-07-20T08:57:24;98400.84;;;19.94;52.33
77323;BME280;66384;51.052;9.850;2023-07-20T08:59:56;98404.23;;;19.90;52.37
77323;BME280;66384;51.052;9.850;2023-07-20T09:02:28;98406.29;;;19.82;52.45
77323;BME280;66384;51.052;9.850;2023-07-20T09:05:00;98408.35;;;19.72;52.71
77323;BME280;66384;51.052;9.850;2023-07-20T09:07:32;98414.55;;;19.65;53.42
77323;BME280;66384;51.052;9.850;2023-07-20T09:10:07;98426.52;;;19.57;54.95
77323;BME280;66384;51.052;9.850;2023-07-20T09:12:39;98435.00;;;19.50;55.69
77323;BME280;66384;51.052;9.850;2023-07-20T09:15:12;98436.36;;;19.39;56.28
77323;BME280;66384;51.052;9.850;2023-07-20T09:17:48;98442.58;;;19.29;57.02
77323;BME280;66384;51.052;9.850;2023-07-20T09:20:20;98443.05;;;19.21;57.71
77323;BME280;66384;51.052;9.850;2023-07-20T09:22:53;98445.43;;;19.11;58.52
77323;BME280;66384;51.052;9.850;2023-07-20T09:25:25;98448.35;;;19.00;58.85
77323;BME280;66384;51.052;9.850;2023-07-20T09:28:03;98450.17;;;18.94;59.47
77323;BME280;66384;51.052;9.850;2023-07-20T09:30:35;98456.13;;;18.91;59.78
77323;BME280;66384;51.052;9.850;2023-07-20T09:33:19;98465.17;;;18.92;60.11
77323;BME280;66384;51.052;9.850;2023-07-20T09:35:55;98471.40;;;18.96;60.38
77323;BME280;66384;51.052;9.850;2023-07-20T09:38:53;98474.84;;;18.99;60.33
77323;BME280;66384;51.052;9.850;2023-07-20T09:41:28;98475.04;;;18.98;60.44
77323;BME280;66384;51.052;9.850;2023-07-20T09:44:02;98478.88;;;18.98;60.60
77323;BME280;66384;51.052;9.850;2023-07-20T09:46:54;98484.73;;;19.04;60.74
77323;BME280;66384;51.052;9.850;2023-07-20T09:49:29;98484.33;;;19.09;60.45
77323;BME280;66384;51.052;9.850;2023-07-20T09:52:21;98481.15;;;19.14;60.73
77323;BME280;66384;51.052;9.850;2023-07-20T09:54:56;98475.70;;;19.18;60.87
77323;BME280;66384;51.052;9.850;2023-07-20T09:57:29;98471.80;;;19.22;60.83
77323;BME280;66384;51.052;9.850;2023-07-20T10:00:01;98474.55;;;19.25;60.94
77323;BME280;66384;51.052;9.850;2023-07-20T10:02:43;98470.88;;;19.26;60.90
77323;BME280;66384;51.052;9.850;2023-07-20T10:05:16;98472.92;;;19.30;60.97
77323;BME280;66384;51.052;9.850;2023-07-20T10:07:48;98477.36;;;19.37;60.96
77323;BME280;66384;51.052;9.850;2023-07-20T10:10:21;98478.34;;;19.42;60.88
77323;BME280;66384;51.052;9.850;2023-07-20T10:12:53;98478.78;;;19.49;60.95
77323;BME280;66384;51.052;9.850;2023-07-20T10:15:30;98479.41;;;19.55;60.81
77323;BME280;66384;51.052;9.850;2023-07-20T10:18:07;98479.69;;;19.60;60.65
77323;BME280;66384;51.052;9.850;2023-07-20T10:20:40;98482.58;;;19.66;60.74
77323;BME280;66384;51.052;9.850;2023-07-20T10:23:32;98477.56;;;19.76;60.51
77323;BME280;66384;51.052;9.850;2023-07-20T10:26:05;98476.91;;;19.86;60.62
77323;BME280;66384;51.052;9.850;2023-07-20T10:28:37;98474.88;;;19.93;60.73
77323;BME280;66384;51.052;9.850;2023-07-20T10:31:11;98472.37;;;19.97;60.73
77323;BME280;66384;51.052;9.850;2023-07-20T10:33:44;98471.42;;;20.02;60.08
77323;BME280;66384;51.052;9.850;2023-07-20T10:36:16;98472.85;;;20.12;59.82
77323;BME280;66384;51.052;9.850;2023-07-20T10:38:56;98469.64;;;20.27;59.49
77323;BME280;66384;51.052;9.850;2023-07-20T10:41:32;98458.77;;;20.38;58.99
77323;BME280;66384;51.052;9.850;2023-07-20T10:44:06;98463.34;;;20.47;58.54
77323;BME280;66384;51.052;9.850;2023-07-20T10:46:45;98459.75;;;20.55;58.05
77323;BME280;66384;51.052;9.850;2023-07-20T10:49:20;98457.30;;;20.55;57.54
77323;BME280;66384;51.052;9.850;2023-07-20T10:52:03;98458.86;;;20.56;57.35
77323;BME280;66384;51.052;9.850;2023-07-20T10:54:51;98452.20;;;20.57;57.06
77323;BME280;66384;51.052;9.850;2023-07-20T10:57:28;98451.09;;;20.60;57.11
77323;BME280;66384;51.052;9.850;2023-07-20T11:00:18;98446.32;;;20.63;56.78
77323;BME280;66384;51.052;9.850;2023-07-20T11:02:59;98444.33;;;20.67;56.81
77323;BME280;66384;51.052;9.850;2023-07-20T11:05:35;98449.24;;;20.76;56.80
77323;BME280;66384;51.052;9.850;2023-07-20T11:08:11;98452.36;;;20.86;56.45
77323;BME280;66384;51.052;9.850;2023-07-20T11:10:43;98450.92;;;20.98;56.25
77323;BME280;66384;51.052;9.850;2023-07-20T11:13:19;98450.16;;;21.09;56.09
77323;BME280;66384;51.052;9.850;2023-07-20T11:16:03;98453.93;;;21.22;55.36
77323;BME280;66384;51.052;9.850;2023-07-20T11:18:36;98453.49;;;21.33;54.22
77323;BME280;66384;51.052;9.850;2023-07-20T11:21:12;98450.15;;;21.35;54.27
77323;BME280;66384;51.052;9.850;2023-07-20T11:23:44;98451.61;;;21.32;54.45
77323;BME280;66384;51.052;9.850;2023-07-20T11:26:18;98450.25;;;21.30;54.28
77323;BME280;66384;51.052;9.850;2023-07-20T11:28:51;98450.84;;;21.27;54.23
77323;BME280;66384;51.052;9.850;2023-07-20T11:31:23;98445.79;;;21.26;54.32
77323;BME280;66384;51.052;9.850;2023-07-20T11:33:55;98443.71;;;21.25;53.98
77323;BME280;66384;51.052;9.850;2023-07-20T11:36:43;98441.52;;;21.21;53.99
77323;BME280;66384;51.052;9.850;2023-07-20T11:39:19;98439.34;;;21.25;53.85
77323;BME280;66384;51.052;9.850;2023-07-20T11:41:52;98436.78;;;21.30;53.12
77323;BME280;66384;51.052;9.850;2023-07-20T11:44:25;98435.11;;;21.35;53.08
77323;BME280;66384;51.052;9.850;2023-07-20T11:47:07;98435.83;;;21.44;52.46
77323;BME280;66384;51.052;9.850;2023-07-20T11:49:41;98434.96;;;21.58;52.04
77323;BME280;66384;51.052;9.850;2023-07-20T11:52:17;98431.52;;;21.72;51.54
77323;BME280;66384;51.052;9.850;2023-07-20T11:54:48;98429.34;;;21.83;51.85
77323;BME280;66384;51.052;9.850;2023-07-20T11:57:20;98425.27;;;21.92;51.79
77323;BME280;66384;51.052;9.850;2023-07-20T11:59:55;98424.15;;;21.95;50.70
77323;BME280;66384;51.052;9.850;2023-07-20T12:02:30;98426.30;;;21.93;50.15
77323;BME280;66384;51.052;9.850;2023-07-20T12:05:04;98423.44;;;21.88;50.59
77323;BME280;66384;51.052;9.850;2023-07-20T12:07:37;98429.27;;;21.78;50.00
77323;BME280;66384;51.052;9.850;2023-07-20T12:10:12;98429.73;;;21.67;50.61
77323;BME280;66384;51.052;9.850;2023-07-20T12:12:45;98430.45;;;21.58;50.37
77323;BME280;66384;51.052;9.850;2023-07-20T12:15:22;98429.41;;;21.49;50.03
77323;BME280;66384;51.052;9.850;2023-07-20T12:17:55;98428.00;;;21.42;50.41
77323;BME280;66384;51.052;9.850;2023-07-20T12:20:29;98421.41;;;21.46;49.85
77323;BME280;66384;51.052;9.850;2023-07-20T12:23:02;98424.13;;;21.51;49.07
77323;BME280;66384;51.052;9.850;2023-07-20T12:25:38;98421.02;;;21.56;48.73
77323;BME280;66384;51.052;9.850;2023-07-20T12:28:11;98413.70;;;21.63;48.33
77323;BME280;66384;51.052;9.850;2023-07-20T12:30:44;98414.16;;;21.66;48.25
77323;BME280;66384;51.052;9.850;2023-07-20T12:33:16;98414.42;;;21.69;47.92
77323;BME280;66384;51.052;9.850;2023-07-20T12:35:48;98416.22;;;21.83;47.65
77323;BME280;66384;51.052;9.850;2023-07-20T12:38:19;98413.86;;;21.93;46.57
77323;BME280;66384;51.052;9.850;2023-07-20T12:40:51;98410.20;;;21.99;46.77
77323;BME280;66384;51.052;9.850;2023-07-20T12:43:22;98402.55;;;22.12;46.93
77323;BME280;66384;51.052;9.850;2023-07-20T12:45:54;98404.15;;;22.25;46.08
77323;BME280;66384;51.052;9.850;2023-07-20T12:48:26;98403.16;;;22.30;45.48
77323;BME280;66384;51.052;9.850;2023-07-20T12:50:57;98410.33;;;22.31;45.97
77323;BME280;66384;51.052;9.850;2023-07-20T12:53:30;98408.81;;;22.28;45.99
77323;BME280;66384;51.052;9.850;2023-07-20T12:56:02;98408.98;;;22.29;45.79
77323;BME280;66384;51.052;9.850;2023-07-20T12:58:53;98412.71;;;22.26;45.39
77323;BME280;66384;51.052;9.850;2023-07-20T13:01:25;98409.04;;;22.26;45.02
77323;BME280;66384;51.052;9.850;2023-07-20T13:03:56;98404.92;;;22.30;44.18
77323;BME280;66384;51.052;9.850;2023-07-20T13:06:32;98403.05;;;22.28;43.54
77323;BME280;66384;51.052;9.850;2023-07-20T13:09:06;98405.91;;;22.25;43.55
77323;BME280;66384;51.052;9.850;2023-07-20T13:11:38;98407.36;;;22.23;43.00
77323;BME280;66384;51.052;9.850;2023-07-20T13:14:09;98407.77;;;22.22;44.19
77323;BME280;66384;51.052;9.850;2023-07-20T13:16:42;98409.36;;;22.21;44.31
77323;BME280;66384;51.052;9.850;2023-07-20T13:19:13;98405.22;;;22.17;44.20
77323;BME280;66384;51.052;9.850;2023-07-20T13:21:45;98407.22;;;22.13;44.00
77323;BME280;66384;51.052;9.850;2023-07-20T13:24:16;98406.94;;;22.11;44.13
77323;BME280;66384;51.052;9.850;2023-07-20T13:26:48;98401.59;;;22.08;43.75
77323;BME280;66384;51.052;9.850;2023-07-20T13:29:20;98403.06;;;22.05;43.46
77323;BME280;66384;51.052;9.850;2023-07-20T13:31:51;98404.55;;;22.01;43.09